Archival Weather

Tokyo Intl

Tokyo, Japan (RJTT)

Report from: Saturday, March 18, 2023 11:30 PM JST
Current time: Sunday, July 14, 2024 9:33 AM JST

Current weather – Weather history – Daily summaries
Weather forecast

Temperature9.0°C (48.2°F)
Wind chill6.5°C (43.7°F)
Dew point6.0°C (42.8°F)
Winds 9 kts (4.6 m/s, 10.4 mph) East-Northeast (60°)
Visibility6.2 mi. (10 km)
Clouds Few clouds 1,500 ft. (457 m)
Ceiling: Broken clouds 8,000 ft. (2,438 m)
Altimeter29.85 in.Hg (1011 mB)
Relative humidity81 %
Density altitude-507 ft. (-155 m)
Remarks No significant changes expected in the next two hours
Flight conditions Visual Meteorological Conditions
Raw dataRJTT 181430Z 06009KT 9999 FEW015 BKN080 09/06 Q1011 NOSIG RMK 1CU015 7AC080 A2987
An error has occurred. This application may no longer respond until reloaded. Reload 🗙